createdAt,value
2019-04-21T00:01:39.920Z,9.83
2019-04-21T00:04:12.339Z,9.93
2019-04-21T00:06:51.095Z,9.53
2019-04-21T00:09:27.821Z,9.93
2019-04-21T00:11:48.325Z,9.53
2019-04-21T00:14:13.276Z,10.25
2019-04-21T00:16:34.719Z,10.00
2019-04-21T00:19:09.083Z,9.43
2019-04-21T00:21:38.474Z,10.18
2019-04-21T00:24:23.285Z,10.30
2019-04-21T00:27:03.781Z,10.28
2019-04-21T00:29:34.239Z,10.40
2019-04-21T00:31:56.029Z,11.28
2019-04-21T00:34:09.566Z,10.32
2019-04-21T00:36:47.167Z,10.70
2019-04-21T00:39:36.134Z,10.50
2019-04-21T00:41:59.599Z,10.55
2019-04-21T00:44:18.026Z,9.83
2019-04-21T00:46:55.823Z,10.35
2019-04-21T00:49:24.772Z,10.18
2019-04-21T00:52:25.144Z,10.65
2019-04-21T00:54:52.100Z,10.45
2019-04-21T00:57:11.513Z,10.55
2019-04-21T00:59:40.413Z,12.53
2019-04-21T01:02:05.617Z,10.90
2019-04-21T01:04:36.860Z,11.20
2019-04-21T01:07:11.192Z,11.60
2019-04-21T01:09:27.861Z,11.40
2019-04-21T01:12:01.285Z,10.90
2019-04-21T01:14:34.811Z,11.75
2019-04-21T01:16:57.954Z,10.80
2019-04-21T01:19:25.159Z,11.33
2019-04-21T01:21:35.244Z,11.43
2019-04-21T01:24:08.703Z,11.12
2019-04-21T01:26:42.969Z,10.72
2019-04-21T01:29:15.936Z,10.75
2019-04-21T01:31:42.154Z,11.35
2019-04-21T01:34:17.043Z,11.22
2019-04-21T01:36:46.039Z,11.80
2019-04-21T01:39:19.704Z,11.22
2019-04-21T01:41:44.789Z,11.30
2019-04-21T01:44:07.522Z,11.65
2019-04-21T01:46:33.715Z,11.25
2019-04-21T01:49:02.098Z,12.10
2019-04-21T01:51:49.320Z,11.80
2019-04-21T01:54:16.033Z,11.85
2019-04-21T01:56:40.159Z,11.73
2019-04-21T01:58:58.763Z,12.25
2019-04-21T02:01:42.319Z,11.60
2019-04-21T02:04:02.669Z,11.75
2019-04-21T02:06:36.262Z,11.40
2019-04-21T02:08:58.055Z,12.28
2019-04-21T02:11:41.280Z,12.63
2019-04-21T02:14:03.873Z,12.18
2019-04-21T02:16:30.773Z,11.70
2019-04-21T02:18:54.672Z,12.07
2019-04-21T02:21:22.104Z,12.50
2019-04-21T02:24:05.068Z,12.53
2019-04-21T02:26:28.542Z,11.85
2019-04-21T02:29:01.959Z,11.60
2019-04-21T02:31:40.420Z,12.10
2019-04-21T02:34:04.481Z,12.10
2019-04-21T02:36:40.214Z,11.88
2019-04-21T02:41:35.522Z,11.83
2019-04-21T02:44:02.507Z,11.30
2019-04-21T02:46:35.314Z,12.03
2019-04-21T02:49:11.638Z,12.40
2019-04-21T02:51:33.889Z,11.50
2019-04-21T02:56:34.481Z,12.88
2019-04-21T03:04:13.808Z,11.70
2019-04-21T03:07:01.653Z,11.40
2019-04-21T03:09:29.797Z,11.63
2019-04-21T03:12:01.573Z,11.43
2019-04-21T03:14:31.497Z,11.40
2019-04-21T03:16:40.158Z,11.43
2019-04-21T03:21:52.482Z,10.60
2019-04-21T03:24:17.927Z,10.38
2019-04-21T03:27:01.897Z,11.43
2019-04-21T03:29:23.906Z,10.80
2019-04-21T03:39:05.637Z,11.33
2019-04-21T03:41:39.548Z,11.28
2019-04-21T03:44:06.195Z,11.55
2019-04-21T03:49:11.851Z,10.72
2019-04-21T03:51:57.347Z,12.00
2019-04-21T03:54:04.966Z,11.30
2019-04-21T04:01:28.468Z,11.38
2019-04-21T04:04:30.617Z,10.60
2019-04-21T04:06:45.081Z,11.68
2019-04-21T04:11:44.152Z,10.85
2019-04-21T04:16:50.372Z,11.08
2019-04-21T04:19:06.136Z,10.58
2019-04-21T04:21:37.217Z,10.32
2019-04-21T04:24:07.170Z,12.58
2019-04-21T04:29:12.428Z,13.95
2019-04-21T04:34:10.565Z,16.45
2019-04-21T04:36:53.161Z,12.10
2019-04-21T04:39:39.635Z,11.00
2019-04-21T04:42:03.332Z,11.90
2019-04-21T04:44:42.081Z,11.18
2019-04-21T04:49:40.017Z,10.50
2019-04-21T04:52:14.140Z,11.57
2019-04-21T04:54:33.792Z,11.28
2019-04-21T04:56:59.284Z,11.68
2019-04-21T05:02:05.777Z,10.95
2019-04-21T05:04:15.461Z,10.72
2019-04-21T05:09:13.106Z,10.58
2019-04-21T05:14:25.103Z,9.70
2019-04-21T05:16:46.769Z,9.45
2019-04-21T05:21:54.712Z,9.60
2019-04-21T05:24:10.795Z,9.20
2019-04-21T05:26:22.015Z,10.00
2019-04-21T05:28:47.298Z,10.45
2019-04-21T05:31:31.670Z,10.23
2019-04-21T05:34:07.470Z,10.95
2019-04-21T05:36:45.907Z,11.93
2019-04-21T05:39:18.523Z,12.53
2019-04-21T05:41:41.232Z,11.15
2019-04-21T05:44:31.242Z,12.40
2019-04-21T05:47:05.924Z,10.78
2019-04-21T05:49:27.961Z,11.12
2019-04-21T05:51:57.499Z,11.35
2019-04-21T05:54:39.503Z,10.70
2019-04-21T05:56:55.447Z,10.28
2019-04-21T05:59:29.372Z,10.32
2019-04-21T06:02:11.410Z,10.40
2019-04-21T06:04:38.494Z,10.40
2019-04-21T06:06:59.443Z,11.12
2019-04-21T06:09:32.277Z,11.70
2019-04-21T06:11:51.429Z,11.97
2019-04-21T06:14:25.153Z,11.88
2019-04-21T06:19:29.414Z,12.00
2019-04-21T06:21:45.225Z,11.50
2019-04-21T06:24:17.352Z,11.53
2019-04-21T06:27:00.375Z,10.80
2019-04-21T06:29:19.470Z,11.22
2019-04-21T06:34:11.214Z,12.13
2019-04-21T06:39:40.324Z,11.30
2019-04-21T06:41:45.270Z,11.68
2019-04-21T06:44:16.532Z,11.78
2019-04-21T06:47:04.535Z,12.03
2019-04-21T06:49:21.776Z,11.45
2019-04-21T06:51:43.591Z,11.78
2019-04-21T06:54:30.557Z,11.35
2019-04-21T06:57:21.877Z,11.78
2019-04-21T06:59:23.061Z,12.33
2019-04-21T07:01:43.896Z,11.83
2019-04-21T07:06:46.953Z,12.07
2019-04-21T07:11:31.802Z,10.85
2019-04-21T07:14:24.947Z,11.80
2019-04-21T07:16:32.010Z,11.95
2019-04-21T07:19:09.957Z,10.78
2019-04-21T07:21:30.001Z,10.72
2019-04-21T07:23:59.156Z,11.12
2019-04-21T07:26:32.725Z,11.10
2019-04-21T07:29:01.858Z,11.03
2019-04-21T07:31:28.935Z,11.53
2019-04-21T07:36:36.432Z,9.95
2019-04-21T07:38:49.884Z,9.68
2019-04-21T07:41:11.325Z,10.50
2019-04-21T07:43:39.371Z,9.63
2019-04-21T07:46:09.282Z,9.70
2019-04-21T07:48:49.258Z,10.72
2019-04-21T07:51:25.393Z,10.13
2019-04-21T07:54:08.623Z,9.35
2019-04-21T07:56:09.344Z,9.65
2019-04-21T07:58:58.385Z,10.10
2019-04-21T08:01:24.329Z,9.43
2019-04-21T08:04:14.752Z,8.90
2019-04-21T08:06:22.406Z,8.73
2019-04-21T08:08:49.145Z,9.50
2019-04-21T08:11:15.235Z,8.50
2019-04-21T08:13:48.717Z,9.03
2019-04-21T08:16:17.425Z,8.83
2019-04-21T08:18:47.421Z,8.50
2019-04-21T08:21:11.018Z,8.48
2019-04-21T08:23:41.608Z,9.70
2019-04-21T08:26:07.969Z,8.95
2019-04-21T08:28:42.612Z,7.25
2019-04-21T08:31:08.191Z,7.92
2019-04-21T08:33:46.569Z,8.20
2019-04-21T08:38:41.717Z,7.87
2019-04-21T08:41:08.426Z,8.25
2019-04-21T08:46:02.026Z,7.85
2019-04-21T08:48:28.530Z,7.47
2019-04-21T08:51:14.172Z,7.78
2019-04-21T08:53:34.269Z,6.95
2019-04-21T08:56:18.274Z,6.40
2019-04-21T08:58:59.199Z,6.85
2019-04-21T09:01:23.989Z,5.22
2019-04-21T09:04:03.793Z,5.97
2019-04-21T09:06:40.277Z,6.17
2019-04-21T09:08:58.630Z,5.10
2019-04-21T09:11:22.609Z,5.50
2019-04-21T09:13:48.914Z,5.85
2019-04-21T09:16:17.081Z,5.60
2019-04-21T09:18:43.335Z,5.70
2019-04-21T09:21:19.455Z,5.90
2019-04-21T09:23:45.339Z,6.00
2019-04-21T09:26:19.697Z,5.33
2019-04-21T09:28:42.106Z,5.10
2019-04-21T09:31:00.841Z,6.00
2019-04-21T09:33:34.502Z,5.00
2019-04-21T09:35:59.260Z,6.03
2019-04-21T09:38:29.965Z,5.42
2019-04-21T09:40:54.019Z,5.40
2019-04-21T09:43:29.987Z,4.97
2019-04-21T09:45:47.665Z,4.80
2019-04-21T09:48:18.733Z,5.15
2019-04-21T09:50:43.890Z,4.97
2019-04-21T09:53:16.782Z,5.28
2019-04-21T09:55:46.591Z,4.62
2019-04-21T09:58:18.487Z,5.00
2019-04-21T10:00:52.557Z,4.92
2019-04-21T10:03:11.687Z,4.80
2019-04-21T10:05:36.022Z,5.03
2019-04-21T10:08:04.095Z,4.35
2019-04-21T10:10:31.841Z,5.15
2019-04-21T10:13:00.694Z,4.60
2019-04-21T10:15:28.318Z,4.45
2019-04-21T10:18:01.028Z,4.58
2019-04-21T10:20:28.538Z,4.70
2019-04-21T10:22:55.373Z,4.83
2019-04-21T10:25:22.809Z,4.35
2019-04-21T10:27:49.646Z,5.08
2019-04-21T10:30:16.989Z,4.35
2019-04-21T10:32:43.567Z,4.65
2019-04-21T10:35:10.909Z,4.42
2019-04-21T10:37:52.681Z,4.60
2019-04-21T10:40:07.525Z,5.12
2019-04-21T10:42:35.738Z,4.37
2019-04-21T10:45:05.102Z,4.83
2019-04-21T10:47:32.423Z,4.87
2019-04-21T10:50:00.400Z,4.50
2019-04-21T10:52:46.691Z,4.70
2019-04-21T10:55:32.059Z,4.97
2019-04-21T10:57:44.367Z,4.33
2019-04-21T11:00:13.609Z,4.83
2019-04-21T11:02:44.674Z,4.90
2019-04-21T11:05:12.503Z,4.95
2019-04-21T11:07:55.222Z,4.72
2019-04-21T11:10:13.956Z,4.53
2019-04-21T11:12:41.382Z,4.70
2019-04-21T11:15:09.390Z,4.25
2019-04-21T11:17:36.480Z,4.75
2019-04-21T11:20:04.620Z,4.47
2019-04-21T11:22:33.501Z,4.40
2019-04-21T11:25:00.769Z,4.70
2019-04-21T11:27:28.800Z,4.40
2019-04-21T11:29:55.737Z,4.50
2019-04-21T11:32:23.149Z,4.50
2019-04-21T11:34:49.842Z,4.30
2019-04-21T11:37:18.216Z,4.87
2019-04-21T11:39:53.557Z,4.85
2019-04-21T11:42:19.561Z,4.70
2019-04-21T11:44:49.362Z,4.92
2019-04-21T11:47:18.807Z,4.90
2019-04-21T11:49:45.507Z,4.78
2019-04-21T11:52:13.294Z,4.03
2019-04-21T11:54:41.017Z,4.85
2019-04-21T11:57:14.074Z,4.65
2019-04-21T11:59:37.518Z,4.28
2019-04-21T12:02:05.579Z,4.72
2019-04-21T12:04:33.708Z,4.65
2019-04-21T12:07:01.897Z,4.87
2019-04-21T12:09:29.307Z,4.58
2019-04-21T12:11:57.189Z,4.40
2019-04-21T12:14:25.963Z,4.60
2019-04-21T12:16:55.452Z,4.30
2019-04-21T12:22:08.817Z,5.20
2019-04-21T12:24:33.415Z,4.37
2019-04-21T12:29:30.630Z,4.67
2019-04-21T12:32:03.428Z,4.67
2019-04-21T12:34:30.275Z,4.53
2019-04-21T12:36:57.060Z,4.30
2019-04-21T12:39:25.089Z,4.53
2019-04-21T12:41:51.864Z,4.33
2019-04-21T12:44:20.469Z,4.33
2019-04-21T12:46:47.715Z,4.20
2019-04-21T12:49:15.844Z,4.37
2019-04-21T12:51:44.090Z,4.20
2019-04-21T12:54:11.984Z,4.08
2019-04-21T12:56:38.920Z,4.08
2019-04-21T12:59:05.563Z,4.15
2019-04-21T13:01:32.766Z,4.25
2019-04-21T13:03:59.678Z,4.42
2019-04-21T13:06:27.752Z,4.62
2019-04-21T13:09:01.350Z,4.47
2019-04-21T13:11:23.411Z,4.20
2019-04-21T13:13:50.260Z,3.95
2019-04-21T13:16:19.232Z,4.17
2019-04-21T13:18:47.114Z,3.87
2019-04-21T13:21:14.099Z,4.08
2019-04-21T13:23:41.124Z,3.80
2019-04-21T13:26:08.395Z,3.47
2019-04-21T13:28:37.576Z,4.30
2019-04-21T13:31:04.554Z,3.75
2019-04-21T13:33:31.303Z,4.15
2019-04-21T13:35:59.249Z,4.03
2019-04-21T13:38:34.642Z,3.70
2019-04-21T13:41:27.338Z,3.67
2019-04-21T13:43:41.181Z,3.87
2019-04-21T13:46:08.133Z,3.83
2019-04-21T13:48:34.917Z,4.33
2019-04-21T13:51:01.600Z,4.12
2019-04-21T13:53:28.586Z,3.77
2019-04-21T13:55:56.523Z,3.80
2019-04-21T13:58:24.196Z,3.85
2019-04-21T14:00:52.407Z,4.08
2019-04-21T14:03:21.746Z,3.80
2019-04-21T14:05:48.610Z,3.70
2019-04-21T14:08:15.589Z,3.80
2019-04-21T14:10:43.805Z,4.03
2019-04-21T14:13:12.063Z,4.08
2019-04-21T14:15:42.345Z,3.83
2019-04-21T14:18:10.929Z,3.72
2019-04-21T14:20:37.841Z,3.75
2019-04-21T14:23:15.427Z,3.62
2019-04-21T14:25:32.910Z,3.90
2019-04-21T14:27:59.891Z,4.25
2019-04-21T14:30:28.002Z,3.90
2019-04-21T14:32:56.236Z,3.70
2019-04-21T14:35:23.065Z,4.40
2019-04-21T14:37:52.920Z,4.22
2019-04-21T14:40:23.669Z,3.87
2019-04-21T14:42:49.875Z,3.77
2019-04-21T14:45:30.579Z,3.42
2019-04-21T14:47:59.083Z,4.25
2019-04-21T14:50:40.070Z,3.70
2019-04-21T14:53:09.809Z,3.70
2019-04-21T14:55:39.416Z,4.83
2019-04-21T14:58:07.340Z,3.50
2019-04-21T15:00:46.489Z,4.05
2019-04-21T15:03:16.019Z,4.37
2019-04-21T15:05:43.015Z,30.20
2019-04-21T15:08:11.032Z,5.08
2019-04-21T15:10:38.922Z,3.75
2019-04-21T15:13:05.910Z,3.67
2019-04-21T15:15:32.493Z,3.15
2019-04-21T15:18:00.155Z,3.85
2019-04-21T15:20:26.920Z,3.60
2019-04-21T15:22:54.480Z,3.70
2019-04-21T15:25:21.953Z,3.85
2019-04-21T15:27:48.839Z,3.98
2019-04-21T15:30:16.511Z,3.67
2019-04-21T15:32:44.408Z,3.25
2019-04-21T15:35:11.264Z,4.00
2019-04-21T15:37:37.982Z,4.28
2019-04-21T15:40:14.817Z,3.50
2019-04-21T15:42:34.673Z,4.58
2019-04-21T15:45:02.911Z,3.70
2019-04-21T15:47:31.814Z,3.80
2019-04-21T15:50:03.654Z,3.10
2019-04-21T15:52:28.097Z,3.37
2019-04-21T15:54:56.988Z,3.40
2019-04-21T15:57:29.714Z,3.42
2019-04-21T16:00:02.679Z,3.37
2019-04-21T16:02:44.635Z,3.92
2019-04-21T16:05:12.987Z,3.65
2019-04-21T16:07:40.292Z,4.12
2019-04-21T16:10:10.692Z,3.90
2019-04-21T16:12:37.918Z,3.42
2019-04-21T16:15:08.657Z,3.67
2019-04-21T16:17:35.380Z,3.72
2019-04-21T16:20:03.992Z,3.42
2019-04-21T16:22:30.904Z,3.67
2019-04-21T16:24:59.052Z,3.67
2019-04-21T16:27:25.783Z,3.65
2019-04-21T16:29:52.435Z,3.80
2019-04-21T16:32:21.427Z,4.47
2019-04-21T16:34:55.696Z,3.75
2019-04-21T16:37:17.442Z,3.20
2019-04-21T16:39:45.359Z,3.83
2019-04-21T16:42:14.199Z,3.33
2019-04-21T16:44:41.059Z,3.67
2019-04-21T16:47:07.739Z,3.90
2019-04-21T16:49:35.784Z,3.33
2019-04-21T16:52:07.869Z,3.55
2019-04-21T16:54:35.690Z,3.33
2019-04-21T16:57:04.176Z,3.52
2019-04-21T16:59:32.770Z,3.72
2019-04-21T17:02:00.632Z,3.65
2019-04-21T17:04:28.719Z,3.40
2019-04-21T17:06:55.589Z,4.20
2019-04-21T17:09:22.982Z,3.58
2019-04-21T17:11:57.422Z,3.67
2019-04-21T17:14:37.534Z,3.40
2019-04-21T17:17:15.268Z,3.35
2019-04-21T17:19:25.325Z,3.50
2019-04-21T17:21:47.895Z,3.20
2019-04-21T17:24:14.692Z,4.03
2019-04-21T17:26:44.184Z,3.52
2019-04-21T17:29:10.564Z,3.65
2019-04-21T17:31:37.314Z,3.50
2019-04-21T17:34:11.901Z,3.75
2019-04-21T17:36:33.014Z,4.00
2019-04-21T17:39:00.167Z,3.83
2019-04-21T17:41:36.451Z,3.70
2019-04-21T17:43:58.179Z,4.22
2019-04-21T17:46:36.637Z,3.62
2019-04-21T17:48:54.757Z,3.70
2019-04-21T17:51:27.541Z,4.20
2019-04-21T17:54:00.434Z,3.72
2019-04-21T17:56:55.084Z,4.20
2019-04-21T17:59:16.442Z,4.12
2019-04-21T18:01:45.680Z,4.15
2019-04-21T18:04:15.178Z,4.40
2019-04-21T18:06:54.325Z,4.28
2019-04-21T18:09:34.242Z,4.60
2019-04-21T18:12:01.552Z,4.40
2019-04-21T18:14:07.369Z,4.45
2019-04-21T18:16:39.516Z,4.58
2019-04-21T18:19:02.828Z,4.50
2019-04-21T18:21:50.054Z,4.47
2019-04-21T18:24:17.474Z,4.70
2019-04-21T18:26:47.718Z,5.00
2019-04-21T18:29:09.559Z,4.60
2019-04-21T18:31:42.735Z,3.90
2019-04-21T18:34:17.488Z,4.72
2019-04-21T18:36:49.987Z,4.30
2019-04-21T18:39:33.936Z,5.00
2019-04-21T18:42:06.503Z,4.80
2019-04-21T18:44:46.233Z,4.58
2019-04-21T18:47:16.283Z,4.42
2019-04-21T18:49:26.943Z,4.97
2019-04-21T18:52:03.983Z,4.67
2019-04-21T18:54:44.372Z,4.58
2019-04-21T18:57:10.215Z,4.60
2019-04-21T18:59:34.627Z,5.58
2019-04-21T19:02:01.052Z,4.87
2019-04-21T19:04:29.142Z,5.20
2019-04-21T19:07:06.638Z,5.28
2019-04-21T19:10:07.249Z,4.47
2019-04-21T19:12:16.504Z,4.83
2019-04-21T19:14:52.191Z,4.40
2019-04-21T19:17:38.374Z,3.98
2019-04-21T19:19:44.237Z,4.17
2019-04-21T19:22:21.770Z,4.60
2019-04-21T19:24:33.554Z,4.95
2019-04-21T19:27:08.035Z,4.03
2019-04-21T19:29:58.364Z,4.10
2019-04-21T19:32:04.449Z,4.62
2019-04-21T19:34:19.809Z,4.72
2019-04-21T19:36:48.803Z,4.83
2019-04-21T19:39:16.415Z,4.70
2019-04-21T19:41:55.112Z,4.78
2019-04-21T19:44:26.317Z,5.05
2019-04-21T19:46:55.981Z,4.90
2019-04-21T19:49:27.825Z,5.25
2019-04-21T19:51:43.817Z,4.70
2019-04-21T19:54:14.370Z,5.40
2019-04-21T19:56:31.918Z,5.00
2019-04-21T19:58:59.156Z,4.40
2019-04-21T20:01:25.737Z,4.53
2019-04-21T20:03:56.172Z,4.60
2019-04-21T20:06:34.531Z,4.35
2019-04-21T20:09:12.282Z,4.58
2019-04-21T20:11:34.691Z,4.35
2019-04-21T20:14:35.689Z,4.25
2019-04-21T20:16:37.460Z,4.30
2019-04-21T20:18:54.627Z,4.10
2019-04-21T20:21:16.382Z,4.50
2019-04-21T20:23:44.724Z,4.42
2019-04-21T20:26:13.680Z,4.62
2019-04-21T20:28:49.265Z,4.20
2019-04-21T20:31:24.975Z,4.30
2019-04-21T20:34:00.615Z,4.15
2019-04-21T20:36:29.576Z,4.33
2019-04-21T20:38:47.246Z,4.80
2019-04-21T20:41:22.712Z,4.75
2019-04-21T20:43:51.295Z,4.45
2019-04-21T20:46:23.716Z,4.70
2019-04-21T20:48:48.119Z,3.95
2019-04-21T20:51:20.396Z,4.58
2019-04-21T20:53:41.011Z,4.53
2019-04-21T20:56:08.635Z,4.20
2019-04-21T20:58:46.323Z,4.12
2019-04-21T21:01:26.813Z,4.45
2019-04-21T21:03:40.767Z,4.87
2019-04-21T21:06:08.266Z,3.98
2019-04-21T21:08:40.317Z,4.45
2019-04-21T21:11:03.284Z,4.92
2019-04-21T21:13:36.830Z,4.85
2019-04-21T21:16:21.643Z,4.50
2019-04-21T21:20:59.070Z,4.03
2019-04-21T21:23:33.562Z,4.00
2019-04-21T21:26:04.828Z,3.90
2019-04-21T21:28:24.604Z,4.58
2019-04-21T21:30:52.710Z,3.90
2019-04-21T21:33:22.174Z,4.10
2019-04-21T21:35:46.603Z,3.77
2019-04-21T21:38:28.232Z,4.20
2019-04-21T21:40:45.601Z,3.85
2019-04-21T21:43:08.250Z,3.90
2019-04-21T21:45:37.695Z,4.67
2019-04-21T21:48:20.456Z,4.10
2019-04-21T21:50:42.136Z,4.00
2019-04-21T21:53:03.251Z,3.87
2019-04-21T21:55:25.633Z,4.15
2019-04-21T21:57:58.109Z,3.85
2019-04-21T22:00:24.038Z,4.33
2019-04-21T22:02:55.443Z,4.22
2019-04-21T22:05:24.293Z,3.95
2019-04-21T22:07:49.960Z,4.75
2019-04-21T22:10:17.977Z,4.65
2019-04-21T22:12:53.976Z,4.47
2019-04-21T22:15:18.624Z,4.42
2019-04-21T22:18:03.424Z,4.20
2019-04-21T22:20:33.431Z,3.95
2019-04-21T22:22:49.875Z,3.95
2019-04-21T22:25:14.107Z,4.25
2019-04-21T22:27:39.103Z,4.03
2019-04-21T22:30:14.277Z,4.28
2019-04-21T22:32:50.223Z,3.92
2019-04-21T22:35:11.211Z,3.92
2019-04-21T22:37:48.777Z,4.05
2019-04-21T22:40:17.412Z,4.15
2019-04-21T22:42:45.251Z,4.58
2019-04-21T22:45:07.216Z,4.28
2019-04-21T22:47:37.795Z,3.85
2019-04-21T22:50:08.453Z,3.77
2019-04-21T22:52:35.633Z,3.90
2019-04-21T22:55:11.898Z,4.10
2019-04-21T22:57:41.747Z,4.25
2019-04-21T23:00:10.760Z,4.25
2019-04-21T23:02:39.274Z,4.30
2019-04-21T23:05:09.646Z,4.10
2019-04-21T23:07:41.500Z,4.22
2019-04-21T23:10:05.627Z,4.15
2019-04-21T23:12:36.599Z,4.08
2019-04-21T23:15:07.160Z,3.90
2019-04-21T23:17:50.263Z,3.72
2019-04-21T23:20:19.907Z,4.25
2019-04-21T23:22:58.420Z,4.15
2019-04-21T23:25:18.150Z,4.20
2019-04-21T23:27:46.839Z,4.35
2019-04-21T23:30:20.276Z,4.55
2019-04-21T23:32:36.007Z,4.20
2019-04-21T23:34:54.417Z,4.50
2019-04-21T23:37:24.103Z,4.08
2019-04-21T23:39:54.650Z,3.67
2019-04-21T23:42:23.724Z,3.90
2019-04-21T23:44:52.638Z,3.87
2019-04-21T23:47:29.304Z,4.37
2019-04-21T23:49:53.358Z,3.35
2019-04-21T23:52:15.736Z,3.92
2019-04-21T23:54:41.050Z,4.20
2019-04-21T23:57:12.457Z,4.05
2019-04-21T23:59:41.008Z,3.85
